Overview Statistics Trail Chart Weather Telemetry Raw packets
 

This is the latest recevied weather packets stored in our database for station/object KR0L-13. If no packets are shown the sender has not sent any weather packets the latest 10 day(s).

<< 27 28 29 30 31 32 33 >>
Time Temp. Humidity Pressure Rain* Wind** Luminosity Snow
1788251122 28.33° C 46% 1015.7 hPa 0 mm - - -
1788250522 28.33° C 46% 1015.8 hPa 0 mm - - -
1788249922 28.33° C 45% 1015.7 hPa 0 mm - - -
1788249322 28.33° C 46% 1015.7 hPa 0 mm - - -
1788248722 28.33° C 46% 1015.6 hPa 0 mm - - -
1788248122 28.33° C 46% 1015.5 hPa 0 mm - - -
1788247522 27.78° C 48% 1015.4 hPa 0 mm - - -
1788246922 26.11° C 52% 1015.4 hPa 0 mm - - -
1788246322 25° C 56% 1015.3 hPa 0 mm - - -
1788245722 24.44° C 59% 1015.3 hPa 0 mm - - -
1788245122 24.44° C 60% 1015.4 hPa 0 mm - - -
1788244522 25° C 59% 1015.4 hPa 0 mm - - -
1788243922 25° C 58% 1015.3 hPa 0 mm - - -
1788243322 25° C 58% 1015.3 hPa 0 mm - - -
1788242722 25° C 58% 1015.3 hPa 0 mm - - -
1788242122 25.56° C 58% 1015.3 hPa 0 mm - - -
1788241522 25.56° C 57% 1015.4 hPa 0 mm - - -
1788240922 26.11° C 56% 1015.3 hPa 0 mm - - -
1788240322 26.67° C 55% 1015.3 hPa 0 mm - - -
1788239722 26.67° C 54% 1015.2 hPa 0 mm - - -
1788239122 26.67° C 54% 1015.1 hPa 0 mm - - -
1788238522 27.22° C 53% 1015.1 hPa 0 mm - - -
1788237922 27.22° C 52% 1015.2 hPa 0 mm - - -
1788237322 27.22° C 52% 1015.2 hPa 0 mm - - -
1788236722 27.78° C 51% 1015.2 hPa 0 mm - - -

* Rain latest hour (hover to see other rain measurements)
** Current wind speed in m/s (hover to see current wind gust speed)